Time;durP1;ratioP1;P1;durP2;ratioP2;P2;SDS_P1;SDS_P2;PMS_P1;PMS_P2;Temp;Humidity;BMP_temperature;BMP_pressure;BME280_temperature;BME280_humidity;BME280_pressure;Samples;Min_cycle;Max_cycle;Signal;HPM_P1;HPM_P2
2023/09/19 00:01:40;;;;;;;12.55;2.83;;;;;;;13.54;100.00;100776.16;4951869;28;20239;-72
2023/09/19 00:04:09;;;;;;;10.70;3.05;;;;;;;13.51;100.00;100774.63;4951966;29;20039;-73
2023/09/19 00:06:44;;;;;;;10.88;2.90;;;;;;;13.42;100.00;100763.19;4952031;29;20030;-73
2023/09/19 00:09:12;;;;;;;13.75;3.42;;;;;;;13.45;100.00;100772.50;4951322;29;20531;-72
2023/09/19 00:11:38;;;;;;;12.38;3.20;;;;;;;13.45;100.00;100777.69;4951981;29;20042;-74
2023/09/19 00:14:06;;;;;;;11.82;2.92;;;;;;;13.43;100.00;100779.56;4951652;29;20019;-76
2023/09/19 00:16:33;;;;;;;12.40;3.08;;;;;;;13.34;100.00;100781.09;4951644;29;20031;-74
2023/09/19 00:19:03;;;;;;;17.33;3.92;;;;;;;13.34;100.00;100778.50;4951929;29;20046;-74
2023/09/19 00:21:31;;;;;;;12.00;3.42;;;;;;;13.32;100.00;100782.97;4934219;29;20062;-73
2023/09/19 00:23:57;;;;;;;15.77;3.25;;;;;;;13.32;100.00;100780.38;4951532;29;20434;-73
2023/09/19 00:26:22;;;;;;;13.48;3.42;;;;;;;13.43;100.00;100798.56;4951710;29;20106;-73
2023/09/19 00:28:47;;;;;;;14.18;3.25;;;;;;;13.44;100.00;100801.97;4951877;28;20035;-73
2023/09/19 00:31:13;;;;;;;13.48;3.20;;;;;;;13.31;100.00;100783.09;4951860;29;20031;-73
2023/09/19 00:33:38;;;;;;;14.32;2.97;;;;;;;13.40;100.00;100809.19;4951614;28;20519;-75
2023/09/19 00:36:05;;;;;;;14.30;2.90;;;;;;;13.33;100.00;100807.97;4951450;29;20039;-73
2023/09/19 00:38:31;;;;;;;12.90;3.50;;;;;;;13.36;100.00;100806.91;4951390;29;20520;-72
2023/09/19 00:40:57;;;;;;;15.27;3.25;;;;;;;13.23;100.00;100798.41;4951521;29;20031;-73
2023/09/19 00:43:24;;;;;;;11.80;2.78;;;;;;;13.30;100.00;100812.56;4951597;29;20047;-72
2023/09/19 00:45:53;;;;;;;10.15;3.00;;;;;;;13.25;100.00;100804.28;4951588;29;20027;-74
2023/09/19 00:48:19;;;;;;;13.80;3.45;;;;;;;13.26;100.00;100811.97;4951300;28;20031;-73
2023/09/19 00:50:47;;;;;;;17.73;3.92;;;;;;;13.29;100.00;100827.31;4951480;29;20030;-74
2023/09/19 00:53:15;;;;;;;12.90;3.38;;;;;;;13.25;100.00;100818.09;4951064;29;20034;-72
2023/09/19 00:55:42;;;;;;;13.13;3.13;;;;;;;13.24;100.00;100816.44;4951543;28;20030;-73
2023/09/19 00:58:10;;;;;;;15.05;4.47;;;;;;;13.36;100.00;100835.44;4950438;29;20031;-72
2023/09/19 01:00:35;;;;;;;11.45;2.85;;;;;;;13.35;100.00;100842.41;4951150;29;20058;-73
2023/09/19 01:03:01;;;;;;;13.20;3.05;;;;;;;13.34;100.00;100835.56;4951132;29;20469;-74
2023/09/19 01:05:28;;;;;;;12.35;2.83;;;;;;;13.29;100.00;100842.88;4951272;29;20031;-74
2023/09/19 01:07:53;;;;;;;15.25;3.28;;;;;;;13.15;100.00;100830.88;4951032;29;20030;-74
2023/09/19 01:10:20;;;;;;;15.25;3.42;;;;;;;13.19;100.00;100841.91;4951171;29;20106;-73
2023/09/19 01:13:10;;;;;;;13.07;2.83;;;;;;;13.06;100.00;100834.13;4951244;28;20465;-73
2023/09/19 01:15:36;;;;;;;11.93;3.03;;;;;;;13.10;100.00;100842.53;4951046;29;20066;-73
2023/09/19 01:18:26;;;;;;;8.85;3.08;;;;;;;13.07;100.00;100850.50;4951149;29;20066;-73
2023/09/19 01:21:04;;;;;;;14.95;3.13;;;;;;;13.01;100.00;100850.97;4952846;28;20122;-72
2023/09/19 01:23:42;;;;;;;11.73;3.08;;;;;;;12.96;100.00;100850.47;4954574;29;20250;-72
2023/09/19 01:26:17;;;;;;;11.85;3.42;;;;;;;12.90;100.00;100856.94;4954238;29;20027;-73
2023/09/19 01:28:57;;;;;;;14.15;3.20;;;;;;;12.82;100.00;100841.94;4954210;29;20031;-73
2023/09/19 01:31:24;;;;;;;9.90;2.88;;;;;;;12.87;100.00;100862.31;4954397;29;20038;-77
2023/09/19 01:33:59;;;;;;;8.48;2.38;;;;;;;12.76;100.00;100844.97;4954143;29;20089;-73
2023/09/19 01:36:25;;;;;;;14.10;3.10;;;;;;;12.78;100.00;100857.81;4954176;29;20034;-74
2023/09/19 01:38:52;;;;;;;9.80;2.67;;;;;;;12.75;100.00;100858.03;4954179;29;20031;-73
2023/09/19 01:41:41;;;;;;;10.82;2.50;;;;;;;12.76;100.00;100870.88;4954433;29;20062;-72
2023/09/19 01:44:11;;;;;;;15.23;3.28;;;;;;;12.71;100.00;100861.78;4954157;29;20081;-74
2023/09/19 01:46:41;;;;;;;10.85;2.60;;;;;;;12.72;100.00;100877.22;4953959;29;20473;-74
2023/09/19 01:49:12;;;;;;;13.38;3.40;;;;;;;12.69;100.00;100882.63;4935975;29;20404;-72
2023/09/19 01:51:55;;;;;;;10.18;2.42;;;;;;;12.66;100.00;100877.66;4954041;29;20027;-72
2023/09/19 01:54:30;;;;;;;9.60;2.90;;;;;;;12.52;100.00;100857.91;4953829;29;20034;-72
2023/09/19 01:57:16;;;;;;;9.70;2.50;;;;;;;12.56;100.00;100868.88;4953812;29;20477;-72
2023/09/19 01:59:48;;;;;;;11.55;2.75;;;;;;;12.62;100.00;100878.81;4953842;28;20415;-73
2023/09/19 02:02:17;;;;;;;12.02;3.00;;;;;;;12.39;100.00;100844.19;4953759;28;20031;-73
2023/09/19 02:04:43;;;;;;;11.70;2.88;;;;;;;12.57;100.00;100879.13;4953474;29;20027;-73
2023/09/19 02:07:08;;;;;;;12.05;3.10;;;;;;;12.58;100.00;100873.00;4953802;29;20480;-72
2023/09/19 02:09:38;;;;;;;13.07;2.97;;;;;;;12.50;100.00;100864.16;4940493;28;20521;-75
2023/09/19 02:12:05;;;;;;;12.45;2.80;;;;;;;12.53;100.00;100871.69;4936523;28;20019;-73
2023/09/19 02:14:30;;;;;;;12.57;3.10;;;;;;;12.41;100.00;100857.84;4953625;28;20035;-75
2023/09/19 02:16:56;;;;;;;12.57;3.22;;;;;;;12.45;100.00;100868.81;4953226;29;20038;-72
2023/09/19 02:19:21;;;;;;;17.73;3.00;;;;;;;12.43;100.00;100873.28;4953242;28;20023;-73
2023/09/19 02:21:48;;;;;;;14.48;3.00;;;;;;;12.42;100.00;100880.22;4953392;29;20508;-74
2023/09/19 02:24:15;;;;;;;12.93;2.67;;;;;;;12.33;100.00;100868.72;4953312;29;20120;-73
2023/09/19 02:26:40;;;;;;;12.10;2.60;;;;;;;12.40;100.00;100873.50;4953368;29;20399;-73
2023/09/19 02:29:06;;;;;;;12.57;2.83;;;;;;;12.35;100.00;100871.22;4953427;29;20027;-74
2023/09/19 02:31:31;;;;;;;13.82;3.20;;;;;;;12.22;100.00;100858.28;4952948;28;20038;-72
2023/09/19 02:33:56;;;;;;;11.45;2.65;;;;;;;12.26;100.00;100871.84;4953085;29;20358;-72
2023/09/19 02:36:23;;;;;;;10.88;3.00;;;;;;;12.30;100.00;100891.44;4952911;29;20113;-75
2023/09/19 02:38:49;;;;;;;14.07;2.90;;;;;;;12.25;100.00;100896.09;4953393;29;20469;-72
2023/09/19 02:41:14;;;;;;;10.85;2.95;;;;;;;12.20;100.00;100882.66;4953286;29;20150;-73
2023/09/19 02:43:40;;;;;;;10.43;3.13;;;;;;;12.16;100.00;100883.78;4953203;29;20031;-72
2023/09/19 02:46:05;;;;;;;16.00;3.40;;;;;;;12.16;100.00;100892.34;4953111;29;20058;-72
2023/09/19 02:48:32;;;;;;;10.10;2.63;;;;;;;12.13;100.00;100895.16;4953067;28;20027;-74
2023/09/19 02:50:57;;;;;;;11.48;2.65;;;;;;;12.14;100.00;100894.22;4953109;29;20476;-72
2023/09/19 02:53:23;;;;;;;14.25;3.35;;;;;;;12.10;100.00;100891.97;4953213;29;20059;-72
2023/09/19 02:55:49;;;;;;;12.48;3.15;;;;;;;12.07;100.00;100900.75;4953078;29;20043;-73
2023/09/19 02:58:15;;;;;;;13.38;2.83;;;;;;;11.99;100.00;100885.75;4953037;29;20400;-73
2023/09/19 03:00:47;;;;;;;12.43;2.45;;;;;;;12.04;100.00;100903.56;4953062;29;20089;-72
2023/09/19 03:03:13;;;;;;;15.20;2.90;;;;;;;11.96;100.00;100903.25;4935349;28;20035;-73
2023/09/19 03:05:38;;;;;;;10.30;2.55;;;;;;;11.96;100.00;100908.41;4952772;29;20066;-72
2023/09/19 03:08:04;;;;;;;12.18;2.63;;;;;;;11.93;100.00;100901.69;4953242;29;20027;-72
2023/09/19 03:10:30;;;;;;;11.70;2.53;;;;;;;11.87;100.00;100889.16;4952827;29;20062;-71
2023/09/19 03:12:56;;;;;;;9.10;2.45;;;;;;;11.94;100.00;100902.53;4952520;29;20022;-72
2023/09/19 03:15:22;;;;;;;12.70;3.08;;;;;;;11.88;100.00;100898.56;4935339;29;20039;-73
2023/09/19 03:17:49;;;;;;;11.23;2.58;;;;;;;11.91;100.00;100897.56;4952713;28;20038;-72
2023/09/19 03:20:17;;;;;;;10.75;2.60;;;;;;;11.93;100.00;100912.06;4952256;29;20054;-72
2023/09/19 03:22:43;;;;;;;10.20;2.67;;;;;;;11.89;100.00;100897.63;4952427;29;20058;-72
2023/09/19 03:25:11;;;;;;;10.40;2.47;;;;;;;11.90;100.00;100903.69;4952662;28;20043;-72
2023/09/19 03:27:40;;;;;;;10.98;2.65;;;;;;;11.89;100.00;100907.16;4952328;29;20050;-71
2023/09/19 03:30:13;;;;;;;9.57;2.25;;;;;;;11.84;100.00;100894.56;4952572;29;20072;-72
2023/09/19 03:32:44;;;;;;;10.82;2.72;;;;;;;11.88;100.00;100903.75;4952310;29;20054;-71
2023/09/19 03:35:13;;;;;;;13.20;2.13;;;;;;;11.83;100.00;100898.06;4952455;29;20031;-72
2023/09/19 03:37:39;;;;;;;12.13;2.78;;;;;;;11.90;100.00;100907.09;4952429;29;20144;-72
2023/09/19 03:40:05;;;;;;;13.32;2.58;;;;;;;11.90;100.00;100898.50;4935063;29;20140;-72
2023/09/19 03:42:31;;;;;;;10.45;2.40;;;;;;;11.93;100.00;100898.28;4951476;28;20066;-72
2023/09/19 03:44:57;;;;;;;11.98;3.17;;;;;;;11.87;100.00;100886.56;4952421;29;20054;-72
2023/09/19 03:47:22;;;;;;;11.93;2.33;;;;;;;11.94;100.00;100893.00;4952246;29;20110;-73
2023/09/19 03:49:48;;;;;;;9.45;2.20;;;;;;;11.89;100.00;100876.13;4952156;29;20059;-72
2023/09/19 03:52:15;;;;;;;8.68;2.67;;;;;;;11.94;100.00;100890.41;4934618;29;20043;-73
2023/09/19 03:54:41;;;;;;;8.13;2.30;;;;;;;11.72;100.00;100851.38;4934753;29;20027;-72
2023/09/19 03:57:06;;;;;;;10.48;2.90;;;;;;;11.89;100.00;100865.75;4935085;29;20064;-72
2023/09/19 03:59:32;;;;;;;13.40;2.88;;;;;;;11.98;100.00;100888.44;4934948;29;20031;-72
2023/09/19 04:01:58;;;;;;;10.30;2.55;;;;;;;11.98;100.00;100878.91;4952171;29;20028;-70
2023/09/19 04:04:25;;;;;;;9.25;2.20;;;;;;;11.95;100.00;100878.28;4934542;29;20418;-72
2023/09/19 04:06:53;;;;;;;10.00;2.40;;;;;;;11.91;100.00;100874.28;4951905;29;20488;-73
2023/09/19 04:09:18;;;;;;;9.63;2.88;;;;;;;11.91;100.00;100866.50;4935063;29;20530;-73
2023/09/19 04:11:43;;;;;;;11.90;2.70;;;;;;;12.02;100.00;100872.59;4951734;29;20102;-72
2023/09/19 04:14:09;;;;;;;11.10;2.58;;;;;;;12.05;100.00;100887.91;4951769;29;20031;-72
2023/09/19 04:16:34;;;;;;;11.88;2.70;;;;;;;12.05;100.00;100884.50;4951822;29;20124;-72
2023/09/19 04:19:00;;;;;;;11.20;2.60;;;;;;;12.02;100.00;100890.72;4951396;29;20043;-72
2023/09/19 04:21:26;;;;;;;10.10;2.88;;;;;;;12.11;100.00;100902.22;4951700;29;20122;-73
2023/09/19 04:23:51;;;;;;;12.75;2.78;;;;;;;12.02;100.00;100892.50;4951665;29;20040;-72
2023/09/19 04:26:17;;;;;;;10.85;2.42;;;;;;;12.11;100.00;100904.81;4951762;28;20518;-73
2023/09/19 04:28:43;;;;;;;10.30;2.63;;;;;;;12.13;100.00;100908.13;4919573;28;20135;-73
2023/09/19 04:31:11;;;;;;;7.45;2.45;;;;;;;12.01;100.00;100896.00;4951600;29;20059;-77
2023/09/19 04:33:36;;;;;;;10.82;3.10;;;;;;;12.04;100.00;100899.22;4951627;29;20023;-77
2023/09/19 04:36:03;;;;;;;12.73;2.83;;;;;;;12.18;100.00;100920.72;4934295;29;20089;-72
2023/09/19 04:38:29;;;;;;;10.57;2.58;;;;;;;12.20;100.00;100932.66;4951565;29;20031;-72
2023/09/19 04:40:58;;;;;;;10.38;2.35;;;;;;;12.27;100.00;100941.66;4951412;29;20027;-73
2023/09/19 04:43:24;;;;;;;8.40;2.45;;;;;;;12.34;100.00;100952.41;4951459;29;20051;-72
2023/09/19 04:45:50;;;;;;;9.07;2.67;;;;;;;12.38;100.00;100950.44;4951535;29;20102;-76
2023/09/19 04:48:16;;;;;;;13.45;3.13;;;;;;;12.39;100.00;100949.50;4933954;28;20114;-75
2023/09/19 04:50:41;;;;;;;11.35;2.75;;;;;;;12.42;100.00;100960.50;4951096;29;20461;-72
2023/09/19 04:53:07;;;;;;;8.02;2.35;;;;;;;12.42;100.00;100954.50;4951219;29;20038;-73
2023/09/19 04:55:32;;;;;;;10.38;2.30;;;;;;;12.34;100.00;100935.13;4954609;28;20106;-73
2023/09/19 04:57:58;;;;;;;8.82;2.53;;;;;;;12.33;100.00;100940.41;4954742;29;20019;-73
2023/09/19 05:00:24;;;;;;;11.20;2.95;;;;;;;12.39;100.00;100952.94;4954743;29;20038;-73
2023/09/19 05:02:56;;;;;;;14.32;3.10;;;;;;;12.41;100.00;100963.19;4954624;29;20073;-72
2023/09/19 05:05:22;;;;;;;9.95;2.45;;;;;;;12.40;100.00;100962.38;4954548;28;20031;-73
2023/09/19 05:07:48;;;;;;;15.48;3.22;;;;;;;12.32;100.00;100955.13;4954642;29;20113;-73
2023/09/19 05:10:14;;;;;;;12.20;2.35;;;;;;;12.32;100.00;100955.13;4937488;29;20092;-72
2023/09/19 05:12:40;;;;;;;13.20;3.10;;;;;;;12.30;100.00;100946.63;4954584;29;20027;-71
2023/09/19 05:15:07;;;;;;;14.43;3.22;;;;;;;12.23;100.00;100941.97;4937206;29;20039;-73
2023/09/19 05:17:33;;;;;;;14.27;2.60;;;;;;;12.31;100.00;100956.06;4954550;28;20081;-73
2023/09/19 05:20:00;;;;;;;10.82;2.58;;;;;;;12.32;100.00;100964.66;4936141;29;20044;-74
2023/09/19 05:22:28;;;;;;;10.15;2.60;;;;;;;12.33;100.00;100966.31;4936866;29;20066;-72
2023/09/19 05:24:54;;;;;;;12.50;2.60;;;;;;;12.23;100.00;100945.38;4954323;29;20031;-73
2023/09/19 05:27:20;;;;;;;9.35;2.22;;;;;;;12.27;100.00;100962.34;4954130;29;20050;-73
2023/09/19 05:29:46;;;;;;;13.35;2.88;;;;;;;12.22;100.00;100953.25;4954280;29;20034;-73
2023/09/19 05:32:11;;;;;;;12.38;2.55;;;;;;;12.32;100.00;100959.47;4954217;29;20031;-72
2023/09/19 05:34:38;;;;;;;12.20;2.65;;;;;;;12.37;100.00;100962.56;4953838;28;20476;-74
2023/09/19 05:37:05;;;;;;;7.90;2.28;;;;;;;12.30;100.00;100953.56;4954444;29;20032;-72
2023/09/19 05:39:30;;;;;;;10.55;2.80;;;;;;;12.38;100.00;100968.56;4954226;29;20499;-73
2023/09/19 05:41:57;;;;;;;11.65;2.67;;;;;;;12.38;100.00;100969.41;4954134;29;20051;-74
2023/09/19 05:44:22;;;;;;;9.23;2.40;;;;;;;12.35;100.00;100962.66;4953995;29;20034;-73
2023/09/19 05:46:48;;;;;;;14.80;2.88;;;;;;;12.42;100.00;100972.63;4953765;29;20031;-74
2023/09/19 05:49:14;;;;;;;12.55;3.00;;;;;;;12.45;100.00;100967.22;4953873;29;20028;-73
2023/09/19 05:51:39;;;;;;;13.35;3.70;;;;;;;12.45;100.00;100968.06;4953997;29;20031;-76
2023/09/19 05:54:05;;;;;;;12.63;2.80;;;;;;;12.44;100.00;100963.81;4954173;28;20058;-73
2023/09/19 05:56:31;;;;;;;11.68;2.67;;;;;;;12.47;100.00;100957.59;4953859;29;20420;-73
2023/09/19 05:58:56;;;;;;;11.35;2.70;;;;;;;12.47;100.00;100953.22;4952490;28;20362;-72
2023/09/19 06:01:22;;;;;;;12.40;2.35;;;;;;;12.55;100.00;100963.06;4937214;29;20044;-74
2023/09/19 06:03:47;;;;;;;14.93;3.50;;;;;;;12.58;100.00;100974.03;4938352;28;20519;-71
2023/09/19 06:06:13;;;;;;;11.35;2.17;;;;;;;12.61;100.00;100973.84;4952535;28;20031;-77
2023/09/19 06:08:38;;;;;;;13.35;2.88;;;;;;;12.66;100.00;100972.69;4953720;28;20027;-73
2023/09/19 06:11:08;;;;;;;10.25;2.78;;;;;;;12.60;100.00;100958.41;4953754;29;20031;-74
2023/09/19 06:13:34;;;;;;;15.05;3.50;;;;;;;12.67;100.00;100959.63;4953704;29;20034;-73
2023/09/19 06:16:02;;;;;;;11.82;3.03;;;;;;;12.77;100.00;100971.00;4953350;29;20035;-73
2023/09/19 06:18:29;;;;;;;11.80;2.72;;;;;;;12.74;100.00;100973.00;4953460;28;20027;-75
2023/09/19 06:20:55;;;;;;;13.48;2.90;;;;;;;12.85;100.00;100971.28;4952998;28;20435;-76
2023/09/19 06:23:24;;;;;;;8.98;2.15;;;;;;;12.87;100.00;100977.19;4953621;29;20027;-75
2023/09/19 06:25:50;;;;;;;9.20;2.60;;;;;;;12.89;100.00;100974.53;4953443;29;20055;-75
2023/09/19 06:28:18;;;;;;;12.00;2.63;;;;;;;12.96;100.00;100967.13;4953015;29;20070;-73
2023/09/19 06:30:44;;;;;;;12.20;3.28;;;;;;;13.11;100.00;100986.78;4953243;29;20036;-75
2023/09/19 06:33:11;;;;;;;11.23;3.05;;;;;;;13.18;100.00;100981.06;4953537;28;20028;-76
2023/09/19 06:35:36;;;;;;;12.68;3.20;;;;;;;13.21;100.00;100977.44;4953090;28;20055;-76
2023/09/19 06:38:03;;;;;;;10.88;3.08;;;;;;;13.30;100.00;100991.53;4953468;29;20071;-75
2023/09/19 06:40:30;;;;;;;12.93;3.05;;;;;;;13.20;100.00;100973.19;4959883;28;20019;-74
2023/09/19 06:42:56;;;;;;;13.70;3.20;;;;;;;13.31;100.00;100983.63;4972450;28;20366;-75
2023/09/19 06:45:22;;;;;;;11.40;2.78;;;;;;;13.41;100.00;100996.75;4972639;28;20049;-74
2023/09/19 06:47:51;;;;;;;10.80;2.97;;;;;;;13.53;100.00;101008.84;4955156;28;20384;-74
2023/09/19 06:50:22;;;;;;;12.88;3.10;;;;;;;13.59;100.00;101010.19;4972144;28;20026;-75
2023/09/19 06:52:49;;;;;;;;;;;;;;;13.70;100.00;101011.03;4972605;28;20062;-75
2023/09/19 06:55:19;;;;;;;11.23;2.95;;;;;;;13.71;100.00;101004.91;4972323;28;19914;-78
2023/09/19 06:57:45;;;;;;;8.90;2.30;;;;;;;13.62;100.00;100974.44;4972228;28;20029;-77
2023/09/19 07:00:18;;;;;;;13.15;2.83;;;;;;;13.77;100.00;101003.66;4972087;28;20027;-76
2023/09/19 07:03:00;;;;;;;13.20;3.17;;;;;;;13.80;100.00;101003.41;4972126;28;20540;-74
2023/09/19 07:05:32;;;;;;;13.32;2.88;;;;;;;13.73;100.00;100987.47;4962749;28;20499;-74
2023/09/19 07:07:59;;;;;;;13.60;3.03;;;;;;;13.81;100.00;100993.84;4953372;29;20023;-74
2023/09/19 07:10:27;;;;;;;14.10;2.92;;;;;;;13.63;100.00;100963.13;4953352;29;20502;-74
2023/09/19 07:13:02;;;;;;;9.70;2.60;;;;;;;13.85;100.00;101010.84;4951665;28;20058;-75
2023/09/19 07:15:30;;;;;;;9.65;2.20;;;;;;;13.75;100.00;100980.38;4952962;28;20059;-74
2023/09/19 07:17:56;;;;;;;11.90;2.85;;;;;;;13.93;100.00;101011.94;4953090;28;20073;-73
2023/09/19 07:20:23;;;;;;;13.38;2.72;;;;;;;14.00;100.00;101014.91;4952482;29;20027;-76
2023/09/19 07:22:50;;;;;;;11.48;2.38;;;;;;;13.97;100.00;101012.56;4952336;29;20122;-74
2023/09/19 07:25:16;;;;;;;15.82;3.60;;;;;;;14.10;100.00;101017.66;4935027;28;20366;-75
2023/09/19 07:27:42;;;;;;;15.15;2.58;;;;;;;14.00;100.00;100979.41;4952551;29;20031;-78
2023/09/19 07:30:08;;;;;;;12.95;2.70;;;;;;;14.21;100.00;101007.28;4952662;29;20031;-78
2023/09/19 07:32:37;;;;;;;13.88;2.50;;;;;;;14.32;100.00;101008.13;4952634;29;20027;-79
2023/09/19 07:35:05;;;;;;;13.52;3.40;;;;;;;14.38;100.00;101013.81;4952376;28;20088;-78
2023/09/19 07:37:33;;;;;;;12.13;3.10;;;;;;;14.32;100.00;100983.94;4952386;29;20118;-75
2023/09/19 07:39:58;;;;;;;15.32;3.90;;;;;;;14.52;100.00;101011.00;4952179;28;20023;-76
2023/09/19 07:42:24;;;;;;;11.65;2.40;;;;;;;14.59;100.00;101020.81;4952329;29;20077;-78
2023/09/19 07:44:50;;;;;;;16.58;3.08;;;;;;;14.67;100.00;101017.66;4952414;28;20035;-78
2023/09/19 07:47:16;;;;;;;12.27;2.83;;;;;;;14.71;100.00;101018.22;4935424;29;20385;-77
2023/09/19 07:49:42;;;;;;;14.35;3.38;;;;;;;14.72;100.00;100996.47;4952235;29;20058;-79
2023/09/19 07:52:09;;;;;;;14.50;3.03;;;;;;;14.73;100.00;100993.75;4952280;28;20054;-77
2023/09/19 07:54:35;;;;;;;16.80;3.20;;;;;;;14.84;100.00;100993.75;4952433;28;20465;-78
2023/09/19 07:57:01;;;;;;;10.38;2.67;;;;;;;15.01;100.00;101013.25;4951990;29;20039;-77
2023/09/19 07:59:27;;;;;;;14.73;3.85;;;;;;;15.10;100.00;101009.09;4952031;29;20030;-76
2023/09/19 08:01:53;;;;;;;11.38;2.80;;;;;;;15.13;100.00;101006.22;4952139;29;20031;-78
2023/09/19 08:04:19;;;;;;;12.68;2.83;;;;;;;15.37;100.00;101026.88;4952087;29;20027;-78
2023/09/19 08:06:44;;;;;;;8.88;2.55;;;;;;;15.49;100.00;101024.13;4952066;29;20027;-78
2023/09/19 08:09:11;;;;;;;10.18;2.85;;;;;;;15.57;100.00;101025.28;4951976;29;20074;-77
2023/09/19 08:11:36;;;;;;;11.77;2.97;;;;;;;15.60;100.00;101020.69;4952068;29;20142;-78
2023/09/19 08:14:02;;;;;;;12.70;2.85;;;;;;;15.76;100.00;101031.50;4951850;29;20121;-79
2023/09/19 08:16:28;;;;;;;11.60;2.85;;;;;;;15.76;100.00;101034.13;4951662;29;20114;-77
2023/09/19 08:18:55;;;;;;;13.60;3.08;;;;;;;15.62;100.00;100982.34;4952050;28;20027;-78
2023/09/19 08:21:23;;;;;;;13.40;3.47;;;;;;;15.77;100.00;100999.31;4951229;28;20051;-75
2023/09/19 08:23:48;;;;;;;12.75;2.92;;;;;;;15.69;99.44;100980.06;4951972;29;20024;-78
2023/09/19 08:26:14;;;;;;;10.75;2.53;;;;;;;15.95;99.48;101017.81;4951805;29;20575;-81
2023/09/19 08:28:40;;;;;;;11.10;3.05;;;;;;;15.97;99.70;101013.28;4951359;28;20042;-77
2023/09/19 08:31:07;;;;;;;9.38;2.40;;;;;;;16.12;100.00;101032.03;4933922;28;20408;-75
2023/09/19 08:33:33;;;;;;;13.40;3.05;;;;;;;16.11;100.00;101012.13;4951740;29;20034;-76
2023/09/19 08:36:00;;;;;;;10.75;2.65;;;;;;;16.18;98.91;101017.69;4951273;29;20402;-77
2023/09/19 08:38:29;;;;;;;12.57;2.70;;;;;;;16.31;100.00;101024.31;4951492;29;20028;-78
2023/09/19 08:40:58;;;;;;;12.48;2.67;;;;;;;16.28;98.35;101018.56;4951651;29;20023;-76
2023/09/19 08:43:24;;;;;;;16.85;3.13;;;;;;;16.21;97.84;101005.22;4951653;28;20023;-78
2023/09/19 08:45:49;;;;;;;12.65;2.92;;;;;;;16.28;96.35;101024.59;4951353;28;20031;-77
2023/09/19 08:48:26;;;;;;;12.85;3.00;;;;;;;16.31;99.03;101021.72;4951544;29;20027;-78
2023/09/19 08:50:59;;;;;;;13.32;2.80;;;;;;;16.37;99.78;101025.59;4951376;28;20054;-79
2023/09/19 08:53:38;;;;;;;10.85;2.72;;;;;;;16.29;98.90;100994.97;4951300;29;20076;-80
2023/09/19 08:56:09;;;;;;;10.70;2.60;;;;;;;16.46;97.25;101014.41;4951314;28;20058;-77
2023/09/19 08:58:44;;;;;;;10.82;2.75;;;;;;;16.51;95.89;101027.84;4951213;28;20031;-80
2023/09/19 09:01:13;;;;;;;10.85;2.75;;;;;;;16.49;95.69;101013.31;4951413;29;20450;-77
2023/09/19 09:03:40;;;;;;;9.85;2.42;;;;;;;16.64;97.59;101010.25;4951211;29;20028;-78
2023/09/19 09:06:11;;;;;;;11.10;2.58;;;;;;;16.85;93.54;101006.78;4951249;29;20032;-78
2023/09/19 09:08:38;;;;;;;11.10;2.97;;;;;;;17.09;94.46;101017.66;4951715;29;20089;-80
2023/09/19 09:11:07;;;;;;;10.45;2.85;;;;;;;17.06;93.02;101009.28;4934058;29;20780;-78
2023/09/19 09:13:35;;;;;;;10.20;2.60;;;;;;;16.68;91.97;100969.09;4951191;28;20058;-79
2023/09/19 09:16:00;;;;;;;11.93;2.65;;;;;;;16.90;90.74;101028.88;4950901;29;20110;-76
2023/09/19 09:18:25;;;;;;;13.18;3.35;;;;;;;16.68;93.10;100991.72;4951060;28;20066;-76
2023/09/19 09:20:51;;;;;;;10.32;2.78;;;;;;;17.08;95.42;101020.41;4950920;29;20488;-76
2023/09/19 09:23:16;;;;;;;12.82;2.88;;;;;;;17.20;92.20;101011.50;4950840;29;20098;-76
2023/09/19 09:25:56;;;;;;;14.75;3.03;;;;;;;17.62;93.05;101022.56;4932667;28;20054;-74
2023/09/19 09:28:24;;;;;;;10.75;2.67;;;;;;;17.56;90.22;101006.59;4950680;28;20081;-77
2023/09/19 09:30:50;;;;;;;11.07;2.63;;;;;;;17.81;88.92;101024.38;4950977;28;20106;-80
2023/09/19 09:33:16;;;;;;;14.57;3.53;;;;;;;17.78;89.89;100998.50;4950629;29;20027;-77
2023/09/19 09:35:47;;;;;;;10.45;2.40;;;;;;;17.66;88.49;100997.81;4962369;28;20438;-76
2023/09/19 09:38:13;;;;;;;14.13;3.38;;;;;;;17.55;89.35;100999.75;4969732;28;20035;-78
2023/09/19 09:40:58;;;;;;;9.77;2.90;;;;;;;17.47;89.00;100998.63;4970625;28;20037;-76
2023/09/19 09:43:36;;;;;;;11.88;2.60;;;;;;;17.31;89.51;101000.97;4973488;28;20396;-76
2023/09/19 09:49:14;;;;;;;14.80;2.85;;;;;;;17.26;90.43;101002.31;4973437;28;20122;-77
2023/09/19 09:51:33;;;;;;;13.52;3.10;;;;;;;17.15;89.65;101001.50;4972834;28;20031;-77
2023/09/19 09:54:12;;;;;;;12.82;2.90;;;;;;;17.11;90.61;101001.91;4973374;28;20076;-77
2023/09/19 09:56:58;;;;;;;11.63;2.88;;;;;;;17.12;91.99;100986.09;4973547;28;20110;-79
2023/09/19 09:59:53;;;;;;;14.30;3.30;;;;;;;17.18;89.94;100976.91;4972839;28;20042;-77
2023/09/19 10:02:32;;;;;;;13.07;2.53;;;;;;;17.23;87.83;101000.00;4973067;28;20031;-80
2023/09/19 10:05:07;;;;;;;13.18;3.03;;;;;;;17.36;90.09;101000.56;4972973;28;20080;-77
2023/09/19 10:07:36;;;;;;;12.57;3.03;;;;;;;17.46;86.74;101006.59;4958096;28;20397;-77
2023/09/19 10:12:48;;;;;;;8.70;2.70;;;;;;;18.00;89.25;101007.84;4972974;28;20041;-79
2023/09/19 10:15:15;;;;;;;11.82;2.65;;;;;;;17.70;85.72;100959.22;4972648;28;20088;-79
2023/09/19 10:17:46;;;;;;;9.80;2.33;;;;;;;17.92;83.97;100989.44;4972914;28;20423;-78
2023/09/19 10:23:14;;;;;;;9.35;2.42;;;;;;;18.30;82.66;101004.22;4972300;28;20290;-78
2023/09/19 10:25:41;;;;;;;10.80;3.05;;;;;;;18.58;82.69;101007.66;4972744;28;20392;-79
2023/09/19 10:28:28;;;;;;;9.52;2.65;;;;;;;18.44;82.57;100979.38;4972221;28;20118;-76
2023/09/19 10:31:03;;;;;;;10.48;2.80;;;;;;;18.60;81.66;101003.97;4955028;28;20365;-77
2023/09/19 10:33:37;;;;;;;11.98;3.00;;;;;;;18.53;79.83;101002.06;4972521;28;20088;-77
2023/09/19 10:36:04;;;;;;;10.50;2.60;;;;;;;18.40;80.04;100986.69;4972248;28;20030;-74
2023/09/19 10:38:33;;;;;;;13.27;2.83;;;;;;;18.28;80.41;100982.59;4956565;28;20400;-75
2023/09/19 10:41:00;;;;;;;8.32;2.17;;;;;;;18.49;82.61;101004.16;4972393;28;20133;-77
2023/09/19 10:43:31;;;;;;;9.68;2.60;;;;;;;18.46;79.65;100993.13;4972121;28;20042;-77
2023/09/19 10:46:03;;;;;;;12.05;2.60;;;;;;;18.49;80.66;100983.22;4972305;28;20077;-75
2023/09/19 10:48:32;;;;;;;10.82;2.83;;;;;;;18.80;82.04;101002.09;4972436;28;20034;-78
2023/09/19 10:51:25;;;;;;;10.38;2.42;;;;;;;18.62;82.53;100926.16;4955066;28;20034;-83
2023/09/19 10:54:00;;;;;;;11.40;2.70;;;;;;;19.29;82.01;100991.34;4953662;28;20093;-76
2023/09/19 10:56:37;;;;;;;11.65;2.72;;;;;;;19.13;75.07;100969.25;4972275;28;20057;-78
2023/09/19 10:59:14;;;;;;;12.73;2.85;;;;;;;19.00;75.94;100971.41;4972193;28;20030;-76
2023/09/19 11:01:47;;;;;;;16.17;2.60;;;;;;;19.07;79.50;100982.91;4972267;28;20037;-75
2023/09/19 11:04:26;;;;;;;10.48;2.78;;;;;;;19.14;77.70;100981.38;4972281;28;20027;-76
2023/09/19 11:07:16;;;;;;;11.38;2.55;;;;;;;19.27;74.94;100972.31;4972265;28;20084;-81
2023/09/19 11:09:53;;;;;;;11.32;2.25;;;;;;;19.31;73.71;100968.44;4956188;28;20034;-75
2023/09/19 11:12:35;;;;;;;10.68;2.10;;;;;;;19.37;76.12;100973.06;4971887;28;20346;-74
2023/09/19 11:15:05;;;;;;;7.78;2.22;;;;;;;19.38;74.92;100956.41;4971670;28;20495;-76
2023/09/19 11:17:40;;;;;;;7.28;2.10;;;;;;;19.32;74.00;100951.75;4971759;28;20052;-77
2023/09/19 11:22:49;;;;;;;7.63;2.25;;;;;;;19.25;75.23;100943.66;4971521;28;20500;-79
2023/09/19 11:25:30;;;;;;;7.88;1.90;;;;;;;19.33;74.79;100938.50;4971497;28;20027;-75
2023/09/19 11:28:18;;;;;;;6.55;1.63;;;;;;;19.40;73.42;100943.97;4971627;28;20067;-81
2023/09/19 11:30:45;;;;;;;11.10;2.00;;;;;;;19.34;73.56;100918.38;4954570;28;20042;-77